Portada
METAR-TAF:

METAR-TAF

Aeropuertos :

Aeropuerto de Berlín-Tegel

Berlín, Alemania

latitud: 52-34N, longitud: 013-19E, altitud: 37 m

Observación

El informe se hizo hace 11 minutos, a las 19:50 UTC
Viento 12 kt del oeste
Temperatura 4°C
Humedad 81%
Presión 1016 hPa
Visibilidad 10 km o más
Escasas nubes a una altura de 2600 ft

METAR: EDDT 181950Z 26012KT 9999 FEW026 04/01 Q1016 NOSIG

Hora: 21:01 (20:01 UTC)

Pronóstico

El informe se hizo hace 3 horas y 1 minutos, a las 17:00 UTC
Pronóstico válido del 18 a las 18 UTC al 19 a las 18 UTC
Viento 15 kt del oeste con ráfagas de 25 kt
Visibilidad 10 km o más
Nubes dispersas a una altura de 4000 ft
Evolucionando progresivamente
del 18 a las 18 UTC al 18 a las 20 UTC
Viento 8 kt del oeste
Evolucionando progresivamente
del 19 a las 15 UTC al 19 a las 17 UTC
Viento 3 kt del oeste-noroeste

TAF: EDDT 181700Z 1818/1918 26015G25KT 9999 SCT040 BECMG 1818/1820 27008KT BECMG 1915/1917 29003KT

Observaciones y pronósticos meteorológicos de más de 4000 aeropuertos (mensajes METAR y TAF).

Los puntos amarillos y rojos representan las estaciones disponibles.

Ponga el ratón en el punto deseado para ver el nombre de la estación.

Haga clic para ver las observaciones y los pronósticos meteorológicos.

Para cambiar el mapa : haga clic en los botones verdes con una cruz de color negro para hacer un zoom, en el botón verde con un guión para alejar o en las flechas verdes para mapas adyacentes.


METAR-TAF: